Marchicora — V2OQ7 — position and weather

sailwx.info

Track history (hours):
 
Tides and Currents Weather Stations Pressure Air Temp Water Temp Dewpoint Dewpoint Depression Visibility Wind Speed Wind Dir Waves Ship Positions

Marchicora

Last reported at 2016-Sep-29 00:27 UTC. Time now 2016-Sep-29 03:17 UTC.
Position N 59°41' E 028°25'.

Length 153 m; draft 8.4 m.

Type: Cargo ship. MMSI: 304653000.

Date/timePositionNaut miles runAvg speedWind from/ knotsBaromVisibWave heightAir tempDewpointWater temp
2016-Sep-29 00:27N 59°41' E 028°25'0 0.0
2016-Sep-28 21:30N 59°41' E 028°25'0 0.0
2016-Sep-28 19:30N 59°41' E 028°25'0 0.0
2016-Sep-28 16:33N 59°41' E 028°25'0 0.0
2016-Sep-28 15:33N 59°41' E 028°25'0 0.0
2016-Sep-28 12:33N 59°41' E 028°25'0 0.0
2016-Sep-28 08:33N 59°41' E 028°25'0 0.0
2016-Sep-28 03:28N 59°41' E 028°25'0 0.0
2016-Sep-28 02:28N 59°41' E 028°25'0 0.0
2016-Sep-28 01:28N 59°41' E 028°25'0 0.0
2016-Sep-27 23:28N 59°41' E 028°25'8 2.1
2016-Sep-27 19:33N 59°49' E 028°25'10 1.9
2016-Sep-27 14:31N 59°56' E 028°38'0 0.0
2016-Sep-27 13:31N 59°56' E 028°38'0 0.0
2016-Sep-27 10:31N 59°56' E 028°38'0 0.0
2016-Sep-27 00:27N 59°56' E 028°38'0 0.0
2016-Sep-26 20:30N 59°56' E 028°38'0 0.0
2016-Sep-26 19:30N 59°56' E 028°38'0 0.0
2016-Sep-26 15:33N 59°56' E 028°38'7 3.6
2016-Sep-26 13:33N 60°03' E 028°43'2311.4
2016-Sep-26 11:31N 60°02' E 029°29'23 7.8
2016-Sep-26 08:32N 59°53' E 030°12'0 0.0
2016-Sep-26 02:32N 59°53' E 030°12'0 0.0
2016-Sep-26 01:32N 59°53' E 030°12'0 0.0
2016-Sep-26 00:32N 59°53' E 030°12'0 0.0
2016-Sep-25 21:32N 59°53' E 030°12'0 0.0
2016-Sep-25 17:29N 59°53' E 030°12'0 0.0
2016-Sep-25 16:32N 59°53' E 030°12'0 0.0
2016-Sep-25 15:32N 59°53' E 030°12'0 0.0
2016-Sep-25 14:32N 59°53' E 030°12'0 0.0
2016-Sep-25 12:31N 59°53' E 030°12'0 0.0
2016-Sep-25 11:31N 59°53' E 030°12'0 0.0
2016-Sep-25 10:31N 59°53' E 030°12'0 0.0
2016-Sep-25 09:31N 59°53' E 030°12'0 0.0
2016-Sep-25 07:31N 59°53' E 030°12'0 0.0
2016-Sep-25 04:31N 59°53' E 030°12'0 0.0
2016-Sep-25 00:31N 59°53' E 030°12'0 0.0
2016-Sep-24 22:31N 59°53' E 030°12'0 0.0
2016-Sep-24 21:31N 59°53' E 030°12'0 0.0
2016-Sep-24 19:31N 59°53' E 030°12'0 0.0
2016-Sep-24 18:31N 59°53' E 030°12'0 0.0
2016-Sep-24 17:31N 59°53' E 030°12'0 0.0
2016-Sep-24 16:31N 59°53' E 030°12'1 0.6
2016-Sep-24 14:33N 59°53' E 030°10'2110.3
2016-Sep-24 12:32N 60°01' E 029°32'4 1.9
2016-Sep-24 10:14N 60°01' E 029°23'4 5.7
2016-Sep-24 09:34N 60°02' E 029°15'6210.4
2016-Sep-24 03:33N 60°00' E 027°11'1312.6
2016-Sep-24 02:34N 59°59' E 026°46'1412.9
2016-Sep-24 01:29N 59°57' E 026°18'7713.0
2016-Sep-23 19:33N 59°37' E 023°51'39012.5
2016-Sep-22 12:30N 54°55' E 015°33'8310.5
2016-Sep-22 04:34N 53°40' E 014°31'8 8.4
2016-Sep-22 03:33N 53°33' E 014°37'3 0.9
2016-Sep-22 00:25N 53°30' E 014°37'0 0.0
2016-Sep-21 23:31N 53°30' E 014°37'0 0.0
2016-Sep-21 22:31N 53°30' E 014°37'0 0.0
2016-Sep-21 19:31N 53°30' E 014°37'0 0.0
2016-Sep-21 16:33N 53°30' E 014°37'0 0.0
2016-Sep-21 09:33N 53°30' E 014°37'0 0.0
2016-Sep-21 08:33N 53°30' E 014°37'0 0.0
2016-Sep-21 05:33N 53°30' E 014°37'0 0.0
2016-Sep-21 03:33N 53°30' E 014°37'0 0.0
2016-Sep-21 02:33N 53°30' E 014°37'0 0.0
2016-Sep-20 17:33N 53°30' E 014°37'0 0.0
2016-Sep-20 14:33N 53°30' E 014°37'0 0.0
2016-Sep-20 13:33N 53°30' E 014°37'0 0.0
2016-Sep-20 10:33N 53°30' E 014°37'5 0.3
2016-Sep-19 16:23N 53°35' E 014°36'1810.0
2016-Sep-19 14:33N 53°50' E 014°19'7 6.9
2016-Sep-19 13:33N 53°57' E 014°16'5 5.0
2016-Sep-19 12:31N 54°02' E 014°17'0 0.1
2016-Sep-19 11:31N 54°02' E 014°17'0 0.0
2016-Sep-19 09:31N 54°02' E 014°17'0 0.0
2016-Sep-19 07:31N 54°02' E 014°17'0 0.0
2016-Sep-19 06:31N 54°02' E 014°17'0 0.0
2016-Sep-19 03:31N 54°02' E 014°17'0 0.0
2016-Sep-19 02:31N 54°02' E 014°17'0 0.0
2016-Sep-19 00:31N 54°02' E 014°17'  
Track history (hours):
 
Tides and Currents Weather Stations Pressure Air Temp Water Temp Dewpoint Dewpoint Depression Visibility Wind Speed Wind Dir Waves Ship Positions

Marchicora

Last reported at 2016-Sep-29 00:27 UTC. Time now 2016-Sep-29 03:17 UTC.
Position N 59°41' E 028°25'.

Length 153 m; draft 8.4 m.

Type: Cargo ship. MMSI: 304653000.

Date/timePositionNaut miles runAvg speedWind from/ knotsBaromVisibWave heightAir tempDewpointWater temp
2016-Sep-29 00:27N 59°41' E 028°25'0 0.0
2016-Sep-28 21:30N 59°41' E 028°25'0 0.0
2016-Sep-28 19:30N 59°41' E 028°25'0 0.0
2016-Sep-28 16:33N 59°41' E 028°25'0 0.0
2016-Sep-28 15:33N 59°41' E 028°25'0 0.0
2016-Sep-28 12:33N 59°41' E 028°25'0 0.0
2016-Sep-28 08:33N 59°41' E 028°25'0 0.0
2016-Sep-28 03:28N 59°41' E 028°25'0 0.0
2016-Sep-28 02:28N 59°41' E 028°25'0 0.0
2016-Sep-28 01:28N 59°41' E 028°25'0 0.0
2016-Sep-27 23:28N 59°41' E 028°25'8 2.1
2016-Sep-27 19:33N 59°49' E 028°25'10 1.9
2016-Sep-27 14:31N 59°56' E 028°38'0 0.0
2016-Sep-27 13:31N 59°56' E 028°38'0 0.0
2016-Sep-27 10:31N 59°56' E 028°38'0 0.0
2016-Sep-27 00:27N 59°56' E 028°38'0 0.0
2016-Sep-26 20:30N 59°56' E 028°38'0 0.0
2016-Sep-26 19:30N 59°56' E 028°38'0 0.0
2016-Sep-26 15:33N 59°56' E 028°38'7 3.6
2016-Sep-26 13:33N 60°03' E 028°43'2311.4
2016-Sep-26 11:31N 60°02' E 029°29'23 7.8
2016-Sep-26 08:32N 59°53' E 030°12'0 0.0
2016-Sep-26 02:32N 59°53' E 030°12'0 0.0
2016-Sep-26 01:32N 59°53' E 030°12'0 0.0
2016-Sep-26 00:32N 59°53' E 030°12'0 0.0
2016-Sep-25 21:32N 59°53' E 030°12'0 0.0
2016-Sep-25 17:29N 59°53' E 030°12'0 0.0
2016-Sep-25 16:32N 59°53' E 030°12'0 0.0
2016-Sep-25 15:32N 59°53' E 030°12'0 0.0
2016-Sep-25 14:32N 59°53' E 030°12'0 0.0
2016-Sep-25 12:31N 59°53' E 030°12'0 0.0
2016-Sep-25 11:31N 59°53' E 030°12'0 0.0
2016-Sep-25 10:31N 59°53' E 030°12'0 0.0
2016-Sep-25 09:31N 59°53' E 030°12'0 0.0
2016-Sep-25 07:31N 59°53' E 030°12'0 0.0
2016-Sep-25 04:31N 59°53' E 030°12'0 0.0
2016-Sep-25 00:31N 59°53' E 030°12'0 0.0
2016-Sep-24 22:31N 59°53' E 030°12'0 0.0
2016-Sep-24 21:31N 59°53' E 030°12'0 0.0
2016-Sep-24 19:31N 59°53' E 030°12'0 0.0
2016-Sep-24 18:31N 59°53' E 030°12'0 0.0
2016-Sep-24 17:31N 59°53' E 030°12'0 0.0
2016-Sep-24 16:31N 59°53' E 030°12'1 0.6
2016-Sep-24 14:33N 59°53' E 030°10'2110.3
2016-Sep-24 12:32N 60°01' E 029°32'4 1.9
2016-Sep-24 10:14N 60°01' E 029°23'4 5.7
2016-Sep-24 09:34N 60°02' E 029°15'6210.4
2016-Sep-24 03:33N 60°00' E 027°11'1312.6
2016-Sep-24 02:34N 59°59' E 026°46'1412.9
2016-Sep-24 01:29N 59°57' E 026°18'7713.0
2016-Sep-23 19:33N 59°37' E 023°51'39012.5
2016-Sep-22 12:30N 54°55' E 015°33'8310.5
2016-Sep-22 04:34N 53°40' E 014°31'8 8.4
2016-Sep-22 03:33N 53°33' E 014°37'3 0.9
2016-Sep-22 00:25N 53°30' E 014°37'0 0.0
2016-Sep-21 23:31N 53°30' E 014°37'0 0.0
2016-Sep-21 22:31N 53°30' E 014°37'0 0.0
2016-Sep-21 19:31N 53°30' E 014°37'0 0.0
2016-Sep-21 16:33N 53°30' E 014°37'0 0.0
2016-Sep-21 09:33N 53°30' E 014°37'0 0.0
2016-Sep-21 08:33N 53°30' E 014°37'0 0.0
2016-Sep-21 05:33N 53°30' E 014°37'0 0.0
2016-Sep-21 03:33N 53°30' E 014°37'0 0.0
2016-Sep-21 02:33N 53°30' E 014°37'0 0.0
2016-Sep-20 17:33N 53°30' E 014°37'0 0.0
2016-Sep-20 14:33N 53°30' E 014°37'0 0.0
2016-Sep-20 13:33N 53°30' E 014°37'0 0.0
2016-Sep-20 10:33N 53°30' E 014°37'5 0.3
2016-Sep-19 16:23N 53°35' E 014°36'1810.0
2016-Sep-19 14:33N 53°50' E 014°19'7 6.9
2016-Sep-19 13:33N 53°57' E 014°16'5 5.0
2016-Sep-19 12:31N 54°02' E 014°17'0 0.1
2016-Sep-19 11:31N 54°02' E 014°17'0 0.0
2016-Sep-19 09:31N 54°02' E 014°17'0 0.0
2016-Sep-19 07:31N 54°02' E 014°17'0 0.0
2016-Sep-19 06:31N 54°02' E 014°17'0 0.0
2016-Sep-19 03:31N 54°02' E 014°17'0 0.0
2016-Sep-19 02:31N 54°02' E 014°17'0 0.0
2016-Sep-19 00:31N 54°02' E 014°17'  

Dump ship's entire track history